Time;durP1;ratioP1;P1;durP2;ratioP2;P2;SDS_P1;SDS_P2;PMS_P1;PMS_P2;Temp;Humidity;BMP_temperature;BMP_pressure;BME280_temperature;BME280_humidity;BME280_pressure;Samples;Min_cycle;Max_cycle;Signal;HPM_P1;HPM_P2
2024/02/25 00:00:28;;;;;;;33.08;31.35;;;;;;;;;;5049832;28;20184;-49
2024/02/25 00:03:13;;;;;;;31.88;30.08;;;;;;;;;;5052484;28;20112;-51
2024/02/25 00:05:59;;;;;;;31.00;29.35;;;;;;;;;;5063047;28;20123;-53
2024/02/25 00:08:44;;;;;;;31.63;29.83;;;;;;;;;;5062173;28;20043;-52
2024/02/25 00:11:30;;;;;;;31.80;29.88;;;;;;;;;;5066688;28;20263;-53
2024/02/25 00:14:16;;;;;;;30.63;29.02;;;;;;;;;;5066208;28;20111;-52
2024/02/25 00:17:01;;;;;;;30.77;29.13;;;;;;;;;;5042013;28;20037;-50
2024/02/25 00:19:47;;;;;;;29.90;28.27;;;;;;;;;;5053256;28;20394;-50
2024/02/25 00:22:32;;;;;;;29.27;27.55;;;;;;;;;;5065724;28;20047;-53
2024/02/25 00:25:18;;;;;;;28.10;26.60;;;;;;;;;;5062909;28;20059;-53
2024/02/25 00:28:04;;;;;;;26.77;25.38;;;;;;;;;;5063298;28;20045;-49
2024/02/25 00:30:50;;;;;;;27.75;26.15;;;;;;;;;;5060843;28;20108;-51
2024/02/25 00:33:35;;;;;;;25.00;23.63;;;;;;;;;;5065857;28;20040;-50
2024/02/25 00:36:21;;;;;;;24.80;23.50;;;;;;;;;;5062502;28;20161;-50
2024/02/25 00:39:07;;;;;;;26.52;25.13;;;;;;;;;;5063435;28;20383;-53
2024/02/25 00:41:56;;;;;;;24.13;22.83;;;;;;;;;;5063019;28;20040;-53
2024/02/25 00:44:45;;;;;;;23.30;22.08;;;;;;;;;;5050962;28;20048;-50
2024/02/25 00:47:31;;;;;;;24.17;22.88;;;;;;;;;;5061294;28;20033;-51
2024/02/25 00:50:16;;;;;;;24.30;23.00;;;;;;;;;;5063415;28;20127;-50
2024/02/25 00:53:02;;;;;;;23.05;21.75;;;;;;;;;;5063395;28;20047;-49
2024/02/25 00:55:48;;;;;;;25.20;23.45;;;;;;;;;;5062950;28;20076;-50
2024/02/25 00:58:35;;;;;;;24.00;22.60;;;;;;;;;;5063296;28;20036;-51
2024/02/25 01:01:21;;;;;;;22.90;21.70;;;;;;;;;;5048513;28;20040;-52
2024/02/25 01:04:07;;;;;;;24.17;22.88;;;;;;;;;;5063593;28;20033;-50
2024/02/25 01:06:52;;;;;;;24.83;23.52;;;;;;;;;;5060043;28;20383;-52
2024/02/25 01:09:38;;;;;;;27.08;25.67;;;;;;;;;;5049194;28;20222;-53
2024/02/25 01:12:24;;;;;;;27.30;25.73;;;;;;;;;;5065780;28;20032;-54
2024/02/25 01:15:09;;;;;;;26.63;25.23;;;;;;;;;;5059309;28;20107;-63
2024/02/25 01:17:55;;;;;;;28.38;26.80;;;;;;;;;;5065711;28;20682;-62
2024/02/25 01:20:40;;;;;;;30.63;29.02;;;;;;;;;;5067291;28;20036;-62
2024/02/25 01:23:26;;;;;;;28.63;27.13;;;;;;;;;;5067665;28;20180;-62
2024/02/25 01:26:12;;;;;;;29.25;27.75;;;;;;;;;;5064211;28;20037;-62
2024/02/25 01:28:58;;;;;;;31.13;29.52;;;;;;;;;;5054731;28;20071;-64
2024/02/25 01:31:50;;;;;;;31.23;29.63;;;;;;;;;;5068708;28;20040;-63
2024/02/25 01:34:35;;;;;;;30.10;28.50;;;;;;;;;;5067623;28;20174;-63
2024/02/25 01:37:21;;;;;;;30.40;28.80;;;;;;;;;;5067259;28;20063;-63
2024/02/25 01:40:07;;;;;;;30.60;28.90;;;;;;;;;;5067144;28;20407;-63
2024/02/25 01:43:18;;;;;;;30.08;28.38;;;;;;;;;;5070354;28;20406;-63
2024/02/25 01:46:04;;;;;;;30.58;28.98;;;;;;;;;;5064478;28;20470;-63
2024/02/25 01:48:51;;;;;;;29.73;28.13;;;;;;;;;;5065743;28;20513;-61
2024/02/25 01:51:37;;;;;;;25.85;24.45;;;;;;;;;;5066623;28;20040;-61
2024/02/25 01:54:23;;;;;;;25.80;24.40;;;;;;;;;;5064490;28;20115;-61
2024/02/25 01:57:09;;;;;;;23.45;22.23;;;;;;;;;;5065014;28;20040;-61
2024/02/25 01:59:55;;;;;;;24.65;23.35;;;;;;;;;;5065911;28;20036;-63
2024/02/25 02:02:40;;;;;;;23.35;22.05;;;;;;;;;;5063568;28;20040;-62
2024/02/25 02:05:26;;;;;;;22.92;21.73;;;;;;;;;;5065197;28;20037;-63
2024/02/25 02:08:12;;;;;;;22.63;21.42;;;;;;;;;;5063652;28;20434;-63
2024/02/25 02:11:12;;;;;;;22.13;20.92;;;;;;;;;;5061892;28;20067;-63
2024/02/25 02:13:58;;;;;;;22.63;21.42;;;;;;;;;;5064872;28;20082;-63
2024/02/25 02:16:43;;;;;;;22.52;21.30;;;;;;;;;;5067106;28;20067;-62
2024/02/25 02:19:29;;;;;;;23.10;21.88;;;;;;;;;;5064703;28;20032;-62
2024/02/25 02:22:14;;;;;;;22.88;21.67;;;;;;;;;;5067325;28;20036;-63
2024/02/25 02:25:00;;;;;;;22.88;21.58;;;;;;;;;;5064693;28;20038;-62
2024/02/25 02:27:46;;;;;;;22.40;21.20;;;;;;;;;;5064661;28;20040;-62
2024/02/25 02:30:31;;;;;;;22.20;21.00;;;;;;;;;;5064331;28;20040;-63
2024/02/25 02:33:17;;;;;;;21.90;20.70;;;;;;;;;;5066012;28;20052;-63
2024/02/25 02:36:03;;;;;;;22.27;21.08;;;;;;;;;;5061926;28;20040;-63
2024/02/25 02:38:48;;;;;;;22.80;21.60;;;;;;;;;;5064774;28;20517;-62
2024/02/25 02:41:34;;;;;;;23.08;21.88;;;;;;;;;;5053723;28;20132;-63
2024/02/25 02:44:20;;;;;;;24.25;22.92;;;;;;;;;;5065354;28;20186;-63
2024/02/25 02:47:05;;;;;;;23.55;22.25;;;;;;;;;;5065517;28;20040;-62
2024/02/25 02:49:51;;;;;;;23.00;21.80;;;;;;;;;;5062107;28;20033;-63
2024/02/25 02:52:38;;;;;;;22.25;21.05;;;;;;;;;;5067200;28;20573;-62
2024/02/25 02:55:24;;;;;;;23.90;22.40;;;;;;;;;;5064415;28;20052;-63
2024/02/25 02:58:10;;;;;;;23.08;21.88;;;;;;;;;;5064637;28;20043;-63
2024/02/25 03:00:55;;;;;;;21.77;20.58;;;;;;;;;;5062965;28;20044;-63
2024/02/25 03:03:41;;;;;;;22.08;20.88;;;;;;;;;;5065370;28;20048;-62
2024/02/25 03:06:27;;;;;;;21.75;20.55;;;;;;;;;;5050648;28;20044;-63
2024/02/25 03:09:12;;;;;;;21.33;20.20;;;;;;;;;;5065248;28;20275;-62
2024/02/25 03:11:58;;;;;;;22.95;21.75;;;;;;;;;;5064947;28;20470;-63
2024/02/25 03:14:44;;;;;;;21.85;20.65;;;;;;;;;;5063829;28;20359;-63
2024/02/25 03:17:29;;;;;;;21.30;20.10;;;;;;;;;;5064648;28;21131;-61
2024/02/25 03:20:19;;;;;;;22.33;21.13;;;;;;;;;;5062475;28;20056;-62
2024/02/25 03:23:04;;;;;;;21.98;20.67;;;;;;;;;;5063070;28;20054;-62
2024/02/25 03:25:50;;;;;;;19.95;18.85;;;;;;;;;;5066400;28;20052;-62
2024/02/25 03:28:36;;;;;;;19.70;18.50;;;;;;;;;;5066237;28;20038;-61
2024/02/25 03:31:21;;;;;;;20.85;19.65;;;;;;;;;;5061877;28;20041;-62
2024/02/25 03:34:07;;;;;;;18.73;17.63;;;;;;;;;;5060698;28;20232;-62
2024/02/25 03:36:52;;;;;;;18.98;17.88;;;;;;;;;;5062969;28;20662;-61
2024/02/25 03:39:38;;;;;;;19.70;18.63;;;;;;;;;;5063136;28;20473;-65
2024/02/25 03:42:24;;;;;;;18.73;17.63;;;;;;;;;;5060803;28;20151;-62
2024/02/25 03:45:09;;;;;;;18.50;17.50;;;;;;;;;;5061384;28;20445;-62
2024/02/25 03:47:55;;;;;;;18.30;17.20;;;;;;;;;;5061875;28;20493;-61
2024/02/25 03:50:41;;;;;;;17.63;16.63;;;;;;;;;;5059033;28;20040;-62
2024/02/25 03:53:26;;;;;;;17.63;16.63;;;;;;;;;;5065352;28;20033;-62
2024/02/25 03:56:12;;;;;;;18.33;17.33;;;;;;;;;;5063712;28;20446;-62
2024/02/25 03:58:58;;;;;;;18.05;16.95;;;;;;;;;;5049767;28;20111;-62
2024/02/25 04:01:43;;;;;;;17.02;16.08;;;;;;;;;;5064373;28;20056;-62
2024/02/25 04:04:29;;;;;;;16.95;16.00;;;;;;;;;;5064484;28;20033;-62
2024/02/25 04:07:15;;;;;;;17.80;16.75;;;;;;;;;;5063047;28;20374;-62
2024/02/25 04:10:00;;;;;;;16.95;16.05;;;;;;;;;;5063055;28;20478;-62
2024/02/25 04:12:46;;;;;;;18.08;17.08;;;;;;;;;;5063481;28;20036;-62
2024/02/25 04:15:31;;;;;;;17.75;16.75;;;;;;;;;;5061497;28;20355;-62
2024/02/25 04:18:17;;;;;;;17.90;16.90;;;;;;;;;;5064245;28;20040;-61
2024/02/25 04:21:03;;;;;;;18.10;17.02;;;;;;;;;;5064839;28;20124;-62
2024/02/25 04:23:49;;;;;;;17.00;16.08;;;;;;;;;;5061524;28;20029;-62
2024/02/25 04:26:34;;;;;;;18.52;17.42;;;;;;;;;;5061090;28;20527;-62
2024/02/25 04:29:20;;;;;;;18.48;17.45;;;;;;;;;;5060589;28;20045;-62
2024/02/25 04:32:06;;;;;;;18.17;17.17;;;;;;;;;;5061321;28;20167;-63
2024/02/25 04:34:51;;;;;;;18.35;17.35;;;;;;;;;;5051500;28;20104;-62
2024/02/25 04:37:37;;;;;;;18.90;17.88;;;;;;;;;;5064842;28;20071;-62
2024/02/25 04:40:24;;;;;;;18.63;17.63;;;;;;;;;;5061772;28;20037;-62
2024/02/25 04:43:09;;;;;;;17.60;16.60;;;;;;;;;;5058149;28;20035;-62
2024/02/25 04:45:55;;;;;;;17.70;16.70;;;;;;;;;;5058716;28;20040;-62
2024/02/25 04:48:40;;;;;;;17.88;16.88;;;;;;;;;;5057710;28;20037;-62
2024/02/25 04:51:26;;;;;;;19.35;18.25;;;;;;;;;;5055668;28;20051;-62
2024/02/25 04:54:13;;;;;;;18.73;17.63;;;;;;;;;;5058805;28;20127;-62
2024/02/25 04:56:58;;;;;;;19.83;18.63;;;;;;;;;;5058466;28;20123;-62
2024/02/25 04:59:44;;;;;;;18.50;17.48;;;;;;;;;;5057402;28;20041;-61
2024/02/25 05:02:30;;;;;;;18.48;17.48;;;;;;;;;;5059420;28;20082;-61
2024/02/25 05:05:15;;;;;;;19.00;17.90;;;;;;;;;;5058000;28;20373;-62
2024/02/25 05:08:01;;;;;;;19.70;18.63;;;;;;;;;;5060815;28;20846;-62
2024/02/25 05:10:46;;;;;;;20.27;19.15;;;;;;;;;;5058695;28;20126;-62
2024/02/25 05:13:32;;;;;;;19.35;18.27;;;;;;;;;;5061480;28;20044;-62
2024/02/25 05:16:18;;;;;;;19.40;18.35;;;;;;;;;;5059060;28;20119;-62
2024/02/25 05:19:03;;;;;;;18.30;17.27;;;;;;;;;;5063446;28;20036;-62
2024/02/25 05:21:49;;;;;;;18.80;17.77;;;;;;;;;;5059531;28;20044;-62
2024/02/25 05:24:35;;;;;;;19.90;18.80;;;;;;;;;;5060104;28;20098;-62
2024/02/25 05:27:22;;;;;;;18.48;17.48;;;;;;;;;;5062948;28;20032;-62
2024/02/25 05:30:08;;;;;;;19.85;18.75;;;;;;;;;;5060299;28;20573;-62
2024/02/25 05:32:54;;;;;;;19.73;18.63;;;;;;;;;;5063350;28;20359;-63
2024/02/25 05:35:41;;;;;;;20.52;19.40;;;;;;;;;;5047488;28;20340;-63
2024/02/25 05:38:27;;;;;;;20.17;19.08;;;;;;;;;;5059037;28;20032;-63
2024/02/25 05:41:12;;;;;;;20.38;19.27;;;;;;;;;;5058806;28;20042;-63
2024/02/25 05:43:58;;;;;;;21.42;20.13;;;;;;;;;;5060252;28;20119;-62
2024/02/25 05:46:44;;;;;;;19.85;18.75;;;;;;;;;;5044363;28;20102;-63
2024/02/25 05:49:30;;;;;;;22.15;20.85;;;;;;;;;;5065085;28;20036;-62
2024/02/25 05:52:15;;;;;;;20.13;19.02;;;;;;;;;;5059852;28;20036;-62
2024/02/25 05:55:01;;;;;;;20.23;19.13;;;;;;;;;;5066584;28;20055;-63
2024/02/25 05:57:47;;;;;;;22.42;21.23;;;;;;;;;;5047665;28;20275;-63
2024/02/25 06:00:32;;;;;;;21.90;20.70;;;;;;;;;;5062369;28;20040;-63
2024/02/25 06:03:18;;;;;;;21.08;19.95;;;;;;;;;;5058804;28;20032;-63
2024/02/25 06:06:04;;;;;;;23.70;22.40;;;;;;;;;;5062566;28;20399;-63
2024/02/25 06:08:49;;;;;;;22.35;20.95;;;;;;;;;;5054956;28;20060;-63
2024/02/25 06:11:35;;;;;;;21.83;20.63;;;;;;;;;;5052876;28;20109;-63
2024/02/25 06:14:20;;;;;;;22.10;20.90;;;;;;;;;;5061715;28;20033;-63
2024/02/25 06:17:06;;;;;;;23.50;21.95;;;;;;;;;;5060475;28;20052;-63
2024/02/25 06:19:52;;;;;;;22.00;20.70;;;;;;;;;;5061549;28;20044;-63
2024/02/25 06:22:39;;;;;;;21.95;20.75;;;;;;;;;;5056345;28;20078;-62
2024/02/25 06:25:25;;;;;;;22.88;21.67;;;;;;;;;;5056738;28;20055;-62
2024/02/25 06:28:11;;;;;;;22.10;20.90;;;;;;;;;;5057749;28;20202;-63
2024/02/25 06:30:56;;;;;;;22.02;20.83;;;;;;;;;;5060589;28;20048;-63
2024/02/25 06:33:42;;;;;;;22.77;21.58;;;;;;;;;;5057790;28;20043;-63
2024/02/25 06:36:27;;;;;;;21.92;20.73;;;;;;;;;;5049802;28;20095;-61
2024/02/25 06:39:13;;;;;;;21.92;20.73;;;;;;;;;;5065768;28;20055;-61
2024/02/25 06:41:59;;;;;;;21.88;20.67;;;;;;;;;;5045411;28;20106;-63
2024/02/25 06:44:44;;;;;;;24.20;22.90;;;;;;;;;;5058195;28;20236;-62
2024/02/25 06:47:30;;;;;;;24.42;23.13;;;;;;;;;;5055704;28;20045;-61
2024/02/25 06:50:17;;;;;;;22.73;21.52;;;;;;;;;;5062148;28;20367;-62
2024/02/25 06:53:03;;;;;;;22.70;21.40;;;;;;;;;;5060970;28;20044;-61
2024/02/25 06:55:48;;;;;;;22.45;21.25;;;;;;;;;;5063248;28;20033;-62
2024/02/25 06:58:34;;;;;;;22.52;21.33;;;;;;;;;;5059396;28;20441;-62
2024/02/25 07:01:20;;;;;;;21.95;20.75;;;;;;;;;;5059334;28;20485;-62
2024/02/25 07:04:05;;;;;;;22.40;21.20;;;;;;;;;;5062563;28;20056;-62
2024/02/25 07:06:51;;;;;;;23.35;22.15;;;;;;;;;;5060681;28;20048;-62
2024/02/25 07:09:39;;;;;;;21.92;20.73;;;;;;;;;;5044538;28;20189;-62
2024/02/25 07:12:24;;;;;;;22.73;21.50;;;;;;;;;;5057816;28;20042;-62
2024/02/25 07:15:10;;;;;;;22.65;21.45;;;;;;;;;;5060787;28;20053;-61
2024/02/25 07:17:56;;;;;;;24.42;23.02;;;;;;;;;;5060148;28;20589;-62
2024/02/25 07:20:41;;;;;;;23.80;22.30;;;;;;;;;;5060210;28;20525;-62
2024/02/25 07:23:27;;;;;;;22.90;21.70;;;;;;;;;;5057503;28;20376;-62
2024/02/25 07:26:13;;;;;;;25.38;24.05;;;;;;;;;;5062644;28;20458;-62
2024/02/25 07:28:59;;;;;;;24.38;23.02;;;;;;;;;;5060581;28;20059;-50
2024/02/25 07:31:45;;;;;;;23.48;22.23;;;;;;;;;;5051060;28;20077;-49
2024/02/25 07:34:30;;;;;;;23.45;22.15;;;;;;;;;;5055595;28;20639;-47
2024/02/25 07:37:16;;;;;;;28.27;26.70;;;;;;;;;;5059234;28;20062;-49
2024/02/25 07:40:02;;;;;;;26.42;25.02;;;;;;;;;;5054627;28;20102;-52
2024/02/25 07:42:47;;;;;;;24.65;23.35;;;;;;;;;;5057643;28;20571;-50
2024/02/25 07:45:33;;;;;;;24.92;23.52;;;;;;;;;;5056317;28;20405;-48
2024/02/25 07:48:19;;;;;;;24.25;22.85;;;;;;;;;;5060814;28;20040;-50
2024/02/25 07:51:04;;;;;;;25.33;23.92;;;;;;;;;;5058911;28;20028;-48
2024/02/25 07:53:50;;;;;;;25.85;24.45;;;;;;;;;;5058516;28;20196;-48
2024/02/25 07:56:36;;;;;;;27.10;25.67;;;;;;;;;;5059619;28;20059;-51
2024/02/25 07:59:21;;;;;;;27.02;25.60;;;;;;;;;;5058526;28;20068;-52
2024/02/25 08:02:07;;;;;;;28.88;27.38;;;;;;;;;;5060190;28;20102;-48
2024/02/25 08:04:52;;;;;;;31.15;29.55;;;;;;;;;;5059647;28;20028;-48
2024/02/25 08:07:38;;;;;;;33.88;32.08;;;;;;;;;;5058115;28;20036;-50
2024/02/25 08:10:24;;;;;;;32.70;31.00;;;;;;;;;;5059555;28;20056;-54
2024/02/25 08:13:09;;;;;;;36.20;34.30;;;;;;;;;;5058756;28;20049;-53
2024/02/25 08:15:55;;;;;;;33.90;32.13;;;;;;;;;;5061305;28;20048;-50
2024/02/25 08:18:47;;;;;;;32.70;31.00;;;;;;;;;;5056061;28;20171;-53
2024/02/25 08:21:33;;;;;;;31.13;29.52;;;;;;;;;;5055917;28;20510;-53
2024/02/25 08:24:18;;;;;;;32.42;30.73;;;;;;;;;;5062643;28;20032;-53
2024/02/25 08:27:04;;;;;;;32.03;30.30;;;;;;;;;;5061819;28;20040;-53
2024/02/25 08:29:50;;;;;;;28.17;26.67;;;;;;;;;;5049245;28;20048;-50
2024/02/25 08:32:36;;;;;;;29.70;28.13;;;;;;;;;;5055970;28;20040;-50
2024/02/25 08:35:22;;;;;;;29.13;27.60;;;;;;;;;;5058448;28;20131;-48
2024/02/25 08:38:07;;;;;;;29.15;27.65;;;;;;;;;;5058227;28;20041;-52
2024/02/25 08:40:53;;;;;;;30.75;29.15;;;;;;;;;;5059120;28;20055;-49
2024/02/25 08:43:39;;;;;;;31.42;29.83;;;;;;;;;;5057667;28;20040;-49
2024/02/25 08:46:25;;;;;;;31.80;30.10;;;;;;;;;;5055315;28;21260;-51
2024/02/25 08:49:10;;;;;;;30.63;28.83;;;;;;;;;;5059845;28;20446;-50
2024/02/25 08:51:56;;;;;;;29.50;28.00;;;;;;;;;;5056654;28;20116;-58
2024/02/25 08:54:43;;;;;;;31.70;29.90;;;;;;;;;;5056562;28;20112;-48
2024/02/25 08:57:31;;;;;;;28.42;26.92;;;;;;;;;;5058136;28;20047;-51
2024/02/25 09:00:17;;;;;;;29.42;27.75;;;;;;;;;;5058343;28;20036;-52
2024/02/25 09:03:03;;;;;;;30.63;28.92;;;;;;;;;;5055749;28;20033;-53
2024/02/25 09:05:49;;;;;;;29.92;28.33;;;;;;;;;;5060166;28;20556;-50
2024/02/25 09:08:36;;;;;;;29.25;27.75;;;;;;;;;;5054658;28;20036;-52
2024/02/25 09:11:22;;;;;;;30.23;28.63;;;;;;;;;;5058676;28;20040;-55
2024/02/25 09:14:07;;;;;;;27.33;25.92;;;;;;;;;;5058459;28;20033;-54
2024/02/25 09:16:53;;;;;;;28.20;26.70;;;;;;;;;;5057592;28;20040;-54
2024/02/25 09:19:39;;;;;;;28.17;26.67;;;;;;;;;;5058554;28;20513;-52
2024/02/25 09:22:25;;;;;;;28.17;26.67;;;;;;;;;;5058062;28;20052;-52
2024/02/25 09:25:10;;;;;;;28.20;26.70;;;;;;;;;;5056237;28;20032;-55
2024/02/25 09:27:56;;;;;;;28.63;27.13;;;;;;;;;;5056846;28;20041;-51
2024/02/25 09:30:43;;;;;;;30.65;29.05;;;;;;;;;;5056241;28;20041;-54
2024/02/25 09:33:30;;;;;;;27.90;26.40;;;;;;;;;;5056679;28;20066;-51
2024/02/25 09:36:16;;;;;;;30.00;28.30;;;;;;;;;;5058334;28;20132;-55
2024/02/25 09:39:03;;;;;;;28.95;27.38;;;;;;;;;;5058139;28;20054;-53
2024/02/25 09:41:51;;;;;;;29.20;27.63;;;;;;;;;;5059665;28;20136;-54
2024/02/25 09:44:39;;;;;;;27.08;25.58;;;;;;;;;;5059385;28;20032;-55
2024/02/25 09:47:25;;;;;;;26.80;25.40;;;;;;;;;;5060008;28;20036;-53
2024/02/25 09:50:13;;;;;;;26.45;25.05;;;;;;;;;;5062370;28;20285;-53
2024/02/25 09:53:00;;;;;;;26.95;25.48;;;;;;;;;;5060466;28;20041;-53
2024/02/25 09:55:46;;;;;;;25.55;24.25;;;;;;;;;;5060550;28;20067;-55
2024/02/25 09:58:32;;;;;;;21.38;20.27;;;;;;;;;;5061991;28;20052;-55
2024/02/25 10:01:17;;;;;;;23.38;22.13;;;;;;;;;;5063138;28;20414;-54
2024/02/25 10:04:03;;;;;;;25.77;24.33;;;;;;;;;;5063348;28;20346;-52
2024/02/25 10:06:49;;;;;;;25.95;24.55;;;;;;;;;;5057900;28;20366;-56
2024/02/25 10:09:34;;;;;;;24.42;23.02;;;;;;;;;;5061874;28;20858;-54
2024/02/25 10:12:22;;;;;;;23.42;22.13;;;;;;;;;;5052068;28;20036;-52
2024/02/25 10:15:10;;;;;;;24.60;23.25;;;;;;;;;;5051223;28;20055;-53
2024/02/25 10:17:55;;;;;;;22.80;21.60;;;;;;;;;;5060504;28;20481;-55
2024/02/25 10:20:41;;;;;;;23.38;22.17;;;;;;;;;;5060127;28;20462;-50
2024/02/25 10:23:27;;;;;;;20.85;19.65;;;;;;;;;;5060099;28;20032;-49
2024/02/25 10:26:19;;;;;;;23.48;22.20;;;;;;;;;;5058983;28;20035;-53
2024/02/25 10:29:05;;;;;;;;;;;;;;;;;;5059555;28;20041;-54
2024/02/25 10:31:58;;;;;;;20.48;19.38;;;;;;;;;;5061018;28;19916;-53
2024/02/25 10:34:43;;;;;;;20.13;19.02;;;;;;;;;;5057797;28;20068;-50
2024/02/25 10:37:29;;;;;;;20.65;19.55;;;;;;;;;;5061038;28;20043;-53
2024/02/25 10:40:15;;;;;;;20.90;19.77;;;;;;;;;;5058238;28;20424;-51
2024/02/25 10:43:01;;;;;;;20.63;19.52;;;;;;;;;;5060122;28;20040;-51
2024/02/25 10:45:49;;;;;;;21.52;20.35;;;;;;;;;;5054693;28;20028;-57
2024/02/25 10:48:36;;;;;;;21.05;19.75;;;;;;;;;;5066860;28;20071;-54
2024/02/25 10:51:23;;;;;;;21.70;20.33;;;;;;;;;;5058481;28;20033;-51
2024/02/25 10:54:12;;;;;;;20.38;19.27;;;;;;;;;;5062525;28;20041;-52
2024/02/25 10:56:58;;;;;;;21.10;19.98;;;;;;;;;;5059786;28;20473;-53
2024/02/25 10:59:47;;;;;;;21.75;20.55;;;;;;;;;;5060913;28;20051;-53
2024/02/25 11:02:33;;;;;;;22.15;20.95;;;;;;;;;;5058834;28;20041;-51
2024/02/25 11:05:19;;;;;;;22.58;21.38;;;;;;;;;;5045780;28;20206;-56
2024/02/25 11:08:09;;;;;;;22.13;20.73;;;;;;;;;;5057852;28;20399;-49
2024/02/25 11:10:57;;;;;;;20.92;19.77;;;;;;;;;;5045622;28;20055;-52
2024/02/25 11:13:46;;;;;;;23.02;21.83;;;;;;;;;;5058728;28;20041;-51
2024/02/25 11:16:36;;;;;;;22.75;21.55;;;;;;;;;;5056043;28;20032;-55
2024/02/25 11:19:22;;;;;;;22.88;21.67;;;;;;;;;;5059789;28;20590;-53
2024/02/25 11:22:08;;;;;;;21.80;20.60;;;;;;;;;;5058694;28;20140;-55
2024/02/25 11:24:53;;;;;;;20.52;19.42;;;;;;;;;;5055972;28;20120;-53
2024/02/25 11:28:06;;;;;;;20.55;19.45;;;;;;;;;;5060242;28;20037;-51
2024/02/25 11:30:53;;;;;;;22.45;21.25;;;;;;;;;;5058900;28;20044;-53
2024/02/25 11:33:41;;;;;;;21.83;20.63;;;;;;;;;;5060271;28;20040;-52
2024/02/25 11:36:26;;;;;;;23.55;22.30;;;;;;;;;;5044531;28;20032;-63
2024/02/25 11:39:12;;;;;;;22.20;21.00;;;;;;;;;;5057294;28;20043;-63
2024/02/25 11:42:00;;;;;;;23.67;22.38;;;;;;;;;;5059777;28;20052;-63
2024/02/25 11:44:45;;;;;;;22.60;21.38;;;;;;;;;;5056131;28;20139;-63
2024/02/25 11:47:31;;;;;;;25.13;23.70;;;;;;;;;;5053549;28;20040;-64
2024/02/25 11:50:17;;;;;;;24.35;23.05;;;;;;;;;;5057783;28;20119;-64
2024/02/25 11:53:02;;;;;;;25.20;23.88;;;;;;;;;;5057463;28;20039;-64
2024/02/25 11:55:48;;;;;;;26.02;24.63;;;;;;;;;;5058780;28;20053;-64
2024/02/25 11:58:34;;;;;;;26.13;24.63;;;;;;;;;;5057787;28;20496;-64
2024/02/25 12:01:20;;;;;;;23.70;22.40;;;;;;;;;;5048034;28;20101;-64
2024/02/25 12:04:06;;;;;;;23.48;22.17;;;;;;;;;;5057603;28;20055;-64
2024/02/25 12:06:52;;;;;;;23.90;22.60;;;;;;;;;;5056585;28;20044;-63
2024/02/25 12:09:38;;;;;;;22.63;21.42;;;;;;;;;;5058869;28;20117;-64
2024/02/25 12:12:24;;;;;;;22.60;21.40;;;;;;;;;;5058450;28;20144;-64
2024/02/25 12:15:09;;;;;;;21.48;20.30;;;;;;;;;;5054019;28;20421;-64
2024/02/25 12:17:56;;;;;;;23.70;22.42;;;;;;;;;;5056834;28;20043;-65
2024/02/25 12:20:42;;;;;;;23.80;22.50;;;;;;;;;;5056335;28;20071;-65
2024/02/25 12:23:30;;;;;;;21.73;20.55;;;;;;;;;;5059658;28;20051;-62
2024/02/25 12:26:16;;;;;;;21.50;20.30;;;;;;;;;;5054102;28;20107;-62
2024/02/25 12:29:08;;;;;;;20.83;19.70;;;;;;;;;;5041865;28;20032;-63
2024/02/25 12:31:57;;;;;;;21.65;20.48;;;;;;;;;;5054049;28;20117;-63
2024/02/25 12:34:44;;;;;;;22.63;21.42;;;;;;;;;;5055927;28;20045;-63
2024/02/25 12:37:30;;;;;;;22.05;20.85;;;;;;;;;;5055623;28;20040;-63
2024/02/25 12:40:16;;;;;;;23.92;22.63;;;;;;;;;;5058572;28;20041;-63
2024/02/25 12:43:02;;;;;;;21.77;20.58;;;;;;;;;;5055901;28;20087;-63
2024/02/25 12:45:47;;;;;;;22.90;21.70;;;;;;;;;;5057473;28;20121;-63
2024/02/25 12:48:33;;;;;;;22.45;21.25;;;;;;;;;;5055110;28;20044;-63
2024/02/25 12:51:19;;;;;;;23.50;22.25;;;;;;;;;;5056080;28;20140;-63
2024/02/25 12:54:06;;;;;;;32.35;30.67;;;;;;;;;;5056340;28;20032;-63
2024/02/25 12:56:52;;;;;;;30.05;28.48;;;;;;;;;;5055420;28;20044;-62
2024/02/25 12:59:39;;;;;;;25.63;24.27;;;;;;;;;;5060957;28;20413;-62
2024/02/25 13:02:24;;;;;;;28.20;26.70;;;;;;;;;;5054806;28;20040;-61
2024/02/25 13:05:10;;;;;;;27.40;25.98;;;;;;;;;;5057747;28;20105;-61
2024/02/25 13:07:56;;;;;;;26.70;25.30;;;;;;;;;;5044112;28;20040;-62
2024/02/25 13:10:41;;;;;;;23.15;21.95;;;;;;;;;;5057049;28;20045;-62
2024/02/25 13:13:28;;;;;;;22.27;21.08;;;;;;;;;;5055018;28;20041;-62
2024/02/25 13:16:14;;;;;;;23.23;21.92;;;;;;;;;;5050664;28;20041;-62
2024/02/25 13:19:00;;;;;;;24.40;23.00;;;;;;;;;;5058652;28;20040;-62
2024/02/25 13:21:45;;;;;;;25.05;23.55;;;;;;;;;;5044593;28;20033;-62
2024/02/25 13:24:31;;;;;;;23.90;22.52;;;;;;;;;;5060210;28;20032;-63
2024/02/25 13:27:17;;;;;;;21.15;20.00;;;;;;;;;;5045081;28;20041;-62
2024/02/25 13:30:03;;;;;;;22.58;21.25;;;;;;;;;;5056624;28;20418;-63
2024/02/25 13:32:48;;;;;;;26.40;25.00;;;;;;;;;;5057075;28;20296;-62
2024/02/25 13:35:36;;;;;;;27.30;25.60;;;;;;;;;;5056925;28;20067;-62
2024/02/25 13:38:22;;;;;;;24.85;23.55;;;;;;;;;;5059441;28;20040;-62
2024/02/25 13:41:10;;;;;;;28.30;26.80;;;;;;;;;;5062054;28;20028;-63
2024/02/25 13:43:57;;;;;;;31.33;29.73;;;;;;;;;;5061235;28;20041;-63
2024/02/25 13:46:44;;;;;;;25.65;24.25;;;;;;;;;;5052810;28;20485;-63
2024/02/25 13:49:29;;;;;;;32.25;30.58;;;;;;;;;;5050636;28;20740;-63
2024/02/25 13:52:15;;;;;;;37.38;34.95;;;;;;;;;;5062329;28;20040;-62
2024/02/25 13:55:00;;;;;;;31.45;29.77;;;;;;;;;;5052638;28;20041;-63
2024/02/25 13:57:47;;;;;;;25.52;24.23;;;;;;;;;;5059701;28;20330;-63
2024/02/25 14:00:32;;;;;;;26.30;24.90;;;;;;;;;;5060778;28;20495;-61
2024/02/25 14:03:18;;;;;;;28.05;26.55;;;;;;;;;;5059192;28;20045;-62
2024/02/25 14:06:05;;;;;;;32.10;30.42;;;;;;;;;;5062646;28;20236;-63
2024/02/25 14:08:51;;;;;;;24.60;23.30;;;;;;;;;;5055929;28;20072;-62
2024/02/25 14:11:37;;;;;;;35.88;34.03;;;;;;;;;;5064132;28;20047;-63
2024/02/25 14:14:23;;;;;;;22.75;21.55;;;;;;;;;;5059134;28;20036;-56
2024/02/25 14:17:10;;;;;;;25.05;23.75;;;;;;;;;;5059407;28;20123;-55
2024/02/25 14:19:55;;;;;;;27.98;26.52;;;;;;;;;;5058382;28;20044;-55
2024/02/25 14:22:41;;;;;;;26.70;25.30;;;;;;;;;;5061531;28;20032;-55
2024/02/25 14:25:27;;;;;;;24.65;23.33;;;;;;;;;;5060578;28;20047;-54
2024/02/25 14:28:14;;;;;;;27.48;26.02;;;;;;;;;;5059215;28;20041;-53
2024/02/25 14:31:00;;;;;;;24.48;23.17;;;;;;;;;;5058184;28;20073;-56
2024/02/25 14:33:46;;;;;;;24.73;23.42;;;;;;;;;;5061822;28;20127;-56
2024/02/25 14:36:32;;;;;;;22.83;21.63;;;;;;;;;;5059614;28;20594;-55
2024/02/25 14:39:17;;;;;;;23.38;22.15;;;;;;;;;;5058158;28;20043;-55
2024/02/25 14:42:03;;;;;;;22.75;21.55;;;;;;;;;;5055609;28;20048;-54
2024/02/25 14:44:49;;;;;;;23.85;22.55;;;;;;;;;;5061713;28;20071;-57
2024/02/25 14:47:35;;;;;;;24.15;22.85;;;;;;;;;;5057772;28;20036;-53
2024/02/25 14:50:21;;;;;;;24.50;23.20;;;;;;;;;;5047384;28;20029;-56
2024/02/25 14:53:08;;;;;;;22.88;21.67;;;;;;;;;;5060143;28;20037;-58
2024/02/25 14:55:54;;;;;;;25.10;23.70;;;;;;;;;;5058246;28;20458;-55
2024/02/25 14:58:39;;;;;;;26.17;24.83;;;;;;;;;;5056475;28;20502;-57
2024/02/25 15:01:25;;;;;;;29.90;28.35;;;;;;;;;;5061878;28;20037;-55
2024/02/25 15:04:11;;;;;;;25.85;24.48;;;;;;;;;;5037173;28;20120;-53
2024/02/25 15:06:56;;;;;;;24.02;22.73;;;;;;;;;;5059910;28;20496;-56
2024/02/25 15:09:42;;;;;;;24.15;22.85;;;;;;;;;;5057619;28;20062;-56
2024/02/25 15:12:28;;;;;;;25.98;24.58;;;;;;;;;;5059147;28;20044;-56
2024/02/25 15:15:17;;;;;;;27.10;25.70;;;;;;;;;;5056007;28;20442;-55
2024/02/25 15:18:05;;;;;;;24.63;23.33;;;;;;;;;;5058526;28;20049;-57
2024/02/25 15:20:51;;;;;;;23.48;22.17;;;;;;;;;;5058337;28;20140;-56
2024/02/25 15:23:40;;;;;;;23.40;22.17;;;;;;;;;;5057643;28;20033;-56
2024/02/25 15:26:26;;;;;;;22.90;21.70;;;;;;;;;;5057347;28;20467;-55
2024/02/25 15:29:11;;;;;;;25.15;23.65;;;;;;;;;;5061373;28;20052;-55
2024/02/25 15:31:57;;;;;;;24.23;22.92;;;;;;;;;;5059599;28;20041;-54
2024/02/25 15:34:44;;;;;;;22.35;21.15;;;;;;;;;;5059235;28;20054;-56
2024/02/25 15:37:30;;;;;;;21.52;20.33;;;;;;;;;;5056835;28;20036;-54
2024/02/25 15:40:16;;;;;;;22.13;20.60;;;;;;;;;;5047345;28;20048;-56
2024/02/25 15:43:04;;;;;;;21.33;20.23;;;;;;;;;;5055794;28;20104;-56
2024/02/25 15:45:50;;;;;;;21.00;19.90;;;;;;;;;;5058970;28;20040;-56
2024/02/25 15:48:37;;;;;;;20.27;19.17;;;;;;;;;;5057963;28;20037;-53
2024/02/25 15:51:23;;;;;;;21.25;20.08;;;;;;;;;;5056702;28;20319;-54
2024/02/25 15:54:09;;;;;;;23.58;22.33;;;;;;;;;;5071503;28;20884;-56
2024/02/25 15:56:55;;;;;;;21.23;20.13;;;;;;;;;;5060835;28;20064;-52
2024/02/25 15:59:41;;;;;;;22.02;20.83;;;;;;;;;;5059082;28;20469;-54
2024/02/25 16:02:27;;;;;;;21.45;20.25;;;;;;;;;;5057460;28;20078;-55
2024/02/25 16:05:13;;;;;;;21.80;20.60;;;;;;;;;;5057816;28;20405;-55
2024/02/25 16:07:58;;;;;;;20.70;19.60;;;;;;;;;;5058782;28;20036;-56